sensor_id;sensor_type;location;lat;lon;timestamp;pressure;altitude;pressure_sealevel;temperature;humidity
61740;BME280;47645;45.288;12.038;2022-09-30T00:00:07;1002.2420539647709;;;15.3556640625;87.09483839763634
61740;BME280;47645;45.288;12.038;2022-09-30T00:10:07;1002.2270309456322;;;15.523828125;87.21566702589489
61740;BME280;47645;45.288;12.038;2022-09-30T00:20:08;1002.2539664423898;;;15.396484375;87.45921611298964
61740;BME280;47645;45.288;12.038;2022-09-30T00:30:09;1002.3818643797335;;;15.727734375;83.36004606217375
61740;BME280;47645;45.288;12.038;2022-09-30T00:40:11;1002.5672424508061;;;15.4626953125;87.5409712537389
61740;BME280;47645;45.288;12.038;2022-09-30T00:50:18;1002.6112546588222;;;15.4677734375;82.41908685731343
61740;BME280;47645;45.288;12.038;2022-09-30T01:00:26;1002.6909264138624;;;15.1669921875;88.35024378038771
61740;BME280;47645;45.288;12.038;2022-09-30T01:10:12;1002.7916421703126;;;15.3759765625;84.2217657350376
61740;BME280;47645;45.288;12.038;2022-09-30T01:20:32;1002.8131052228025;;;14.9173828125;90.33571381945586
61740;BME280;47645;45.288;12.038;2022-09-30T01:30:17;1002.8211376185952;;;15.1669921875;88.21098531501586
61740;BME280;47645;45.288;12.038;2022-09-30T01:40:21;1002.9303129244424;;;15.3505859375;82.8054975278969
61740;BME280;47645;45.288;12.038;2022-09-30T01:50:19;1003.0486808173872;;;15.3759765625;81.35136273484467
61740;BME280;47645;45.288;12.038;2022-09-30T02:00:16;1003.1425060689502;;;15.202734375;82.2467610932444
61740;BME280;47645;45.288;12.038;2022-09-30T02:10:21;1003.2613872473568;;;15.2689453125;84.71329404276777
61740;BME280;47645;45.288;12.038;2022-09-30T02:20:21;1003.3789124350155;;;15.319921875;84.26942172871894
61740;BME280;47645;45.288;12.038;2022-09-30T02:30:18;1003.6856672417769;;;15.4576171875;82.93894936536834
61740;BME280;47645;45.288;12.038;2022-09-30T02:40:23;1003.7354242879234;;;15.182421875;82.92880513085377
61740;BME280;47645;45.288;12.038;2022-09-30T02:50:26;1003.8296655966445;;;15.330078125;82.40041003394668
61740;BME280;47645;45.288;12.038;2022-09-30T03:00:21;1003.9182654388549;;;14.687890625;89.35340185792123
61740;BME280;47645;45.288;12.038;2022-09-30T03:10:22;1004.0583083987802;;;14.88671875;82.681426205918
61740;BME280;47645;45.288;12.038;2022-09-30T03:20:35;1004.0132544353309;;;15.0294921875;82.94205688193063
61740;BME280;47645;45.288;12.038;2022-09-30T03:30:27;1004.1221615621253;;;15.192578125;82.84070354492563
61740;BME280;47645;45.288;12.038;2022-09-30T03:40:28;1004.3705438410138;;;15.1619140625;80.23058613458996
61740;BME280;47645;45.288;12.038;2022-09-30T03:50:27;1004.4704402992812;;;15.3404296875;80.50578081397849
61740;BME280;47645;45.288;12.038;2022-09-30T04:00:25;1004.3327052808265;;;15.2435546875;77.61282029869656
61740;BME280;47645;45.288;12.038;2022-09-30T04:10:26;1004.5178296435789;;;15.319921875;80.54777194977733
61740;BME280;47645;45.288;12.038;2022-09-30T04:20:28;1004.6284471647341;;;15.2486328125;80.13728474870896
61740;BME280;47645;45.288;12.038;2022-09-30T04:30:28;1004.7185000007287;;;15.1314453125;77.71607736174833
61740;BME280;47645;45.288;12.038;2022-09-30T04:40:29;1005.0049606851062;;;15.1517578125;77.47055456327331
61740;BME280;47645;45.288;12.038;2022-09-30T04:50:31;1004.9548820003561;;;15.2384765625;75.85578904552732
61740;BME280;47645;45.288;12.038;2022-09-30T05:00:31;1005.1283968610202;;;15.19765625;76.02081239750933
61740;BME280;47645;45.288;12.038;2022-09-30T05:10:32;1005.0953257562614;;;15.3505859375;76.02720415811974
61740;BME280;47645;45.288;12.038;2022-09-30T05:20:33;1005.4718715972263;;;15.2537109375;75.30155212430319
61740;BME280;47645;45.288;12.038;2022-09-30T05:30:33;1005.6010250360207;;;14.805078125;89.18189208910748
61740;BME280;47645;45.288;12.038;2022-09-30T05:40:36;1005.8368736716716;;;14.978515625;83.65365961827519
61740;BME280;47645;45.288;12.038;2022-09-30T05:50:35;1005.8559991677595;;;14.896875;89.94168793572534
61740;BME280;47645;45.288;12.038;2022-09-30T06:00:38;1006.0513937561913;;;14.9734375;90.38077493044433
61740;BME280;47645;45.288;12.038;2022-09-30T06:10:40;1006.0013109128313;;;14.8154296875;91.69689924718935
61740;BME280;47645;45.288;12.038;2022-09-30T06:20:38;1006.0978861618843;;;15.12109375;89.32034609269219
61740;BME280;47645;45.288;12.038;2022-09-30T06:30:38;1006.2895637664427;;;15.0447265625;91.53010438605877
61740;BME280;47645;45.288;12.038;2022-09-30T06:40:40;1006.5564782263126;;;15.309765625;90.78288660559232
61740;BME280;47645;45.288;12.038;2022-09-30T06:50:41;1006.637093589849;;;15.43203125;91.81549222890928
61740;BME280;47645;45.288;12.038;2022-09-30T07:00:41;1006.7225963289748;;;15.503515625;88.68570931833838
61740;BME280;47645;45.288;12.038;2022-09-30T07:10:45;1006.8763171781799;;;15.7125;91.12231771616347
61740;BME280;47645;45.288;12.038;2022-09-30T07:20:47;1007.067812398137;;;15.855078125;90.16509947435372
61740;BME280;47645;45.288;12.038;2022-09-30T07:30:44;1007.1818687602542;;;15.7125;92.10635532644106
61740;BME280;47645;45.288;12.038;2022-09-30T07:40:57;1007.3445031432237;;;15.86015625;91.31826498634167
61740;BME280;47645;45.288;12.038;2022-09-30T07:50:46;1007.5883594733895;;;16.55859375;88.90474166538999
61740;BME280;47645;45.288;12.038;2022-09-30T08:00:46;1007.8554585129424;;;17.2466796875;77.41020218373416
61740;BME280;47645;45.288;12.038;2022-09-30T08:10:47;1007.8839377183234;;;17.53203125;83.96663508425242
61740;BME280;47645;45.288;12.038;2022-09-30T08:20:48;1008.0288657276346;;;17.858203125;83.55993146794017
61740;BME280;47645;45.288;12.038;2022-09-30T08:30:49;1008.1513864567976;;;18.1896484375;82.40321533241445
61740;BME280;47645;45.288;12.038;2022-09-30T08:40:59;1008.385633802738;;;18.6177734375;79.4898463108843
61740;BME280;47645;45.288;12.038;2022-09-30T08:50:59;1008.4627869501151;;;18.8166015625;79.92050310229298
61740;BME280;47645;45.288;12.038;2022-09-30T09:00:56;1008.54390025839;;;19.18359375;77.84857531581062
61740;BME280;47645;45.288;12.038;2022-09-30T09:10:58;1008.6907716548692;;;19.9736328125;75.25543291602497
61740;BME280;47645;45.288;12.038;2022-09-30T09:20:55;1008.882157905308;;;19.953125;72.11882708779889
61740;BME280;47645;45.288;12.038;2022-09-30T09:30:57;1008.9218835329447;;;19.92265625;75.1597243195626
61740;BME280;47645;45.288;12.038;2022-09-30T09:41:06;1008.873040609611;;;20.5189453125;73.92307291830322
61740;BME280;47645;45.288;12.038;2022-09-30T09:51:00;1008.9707292292246;;;20.473046875;74.21441921913518
61740;BME280;47645;45.288;12.038;2022-09-30T10:01:10;1009.0240341242732;;;20.3251953125;74.55534706452173
61740;BME280;47645;45.288;12.038;2022-09-30T10:11:00;1008.952125175713;;;19.9736328125;75.94751407775532
61740;BME280;47645;45.288;12.038;2022-09-30T10:21:03;1008.9707306569176;;;20.2029296875;76.45363936541439
61740;BME280;47645;45.288;12.038;2022-09-30T10:31:04;1009.07010357682;;;20.0705078125;76.99409348813978
61740;BME280;47645;45.288;12.038;2022-09-30T10:41:03;1009.1429333302342;;;20.0705078125;77.86140589100012
61740;BME280;47645;45.288;12.038;2022-09-30T10:51:16;1009.2111473023367;;;20.4271484375;77.07457450794654
61740;BME280;47645;45.288;12.038;2022-09-30T11:01:16;1009.3389211683473;;;20.5240234375;77.77082522588195
61740;BME280;47645;45.288;12.038;2022-09-30T11:11:13;1009.4702474648714;;;20.1671875;77.92686824274391
61740;BME280;47645;45.288;12.038;2022-09-30T11:21:14;1009.3824583328532;;;20.3150390625;80.79976070297674
61740;BME280;47645;45.288;12.038;2022-09-30T11:31:18;1009.3609144841819;;;19.9685546875;82.11644062227721
61740;BME280;47645;45.288;12.038;2022-09-30T11:41:12;1009.3922837629302;;;19.626953125;84.94708702607726
61740;BME280;47645;45.288;12.038;2022-09-30T11:51:17;1009.4497771807562;;;19.6779296875;87.12205493672643
61740;BME280;47645;45.288;12.038;2022-09-30T12:01:19;1009.549130345744;;;19.63203125;86.11871443504037
61740;BME280;47645;45.288;12.038;2022-09-30T12:11:17;1009.5716205433462;;;19.499609375;86.75889101420064
61740;BME280;47645;45.288;12.038;2022-09-30T12:21:19;1009.6071236307065;;;19.2548828125;87.11249977408947
61740;BME280;47645;45.288;12.038;2022-09-30T12:31:29;1009.5504519218807;;;19.2498046875;88.58446585560156
61740;BME280;47645;45.288;12.038;2022-09-30T12:41:26;1009.4687200713067;;;19.402734375;88.15684112702192
61740;BME280;47645;45.288;12.038;2022-09-30T12:51:26;1009.5977640775565;;;19.1681640625;87.85977562763738
61740;BME280;47645;45.288;12.038;2022-09-30T13:01:20;1009.7442144774266;;;19.433203125;86.40773994048975
61740;BME280;47645;45.288;12.038;2022-09-30T13:11:31;1009.8480632185621;;;19.4892578125;87.13803256874817
61740;BME280;47645;45.288;12.038;2022-09-30T13:21:22;1009.8816612553861;;;19.6830078125;85.97081861529048
61740;BME280;47645;45.288;12.038;2022-09-30T13:31:21;1009.9504055130668;;;19.3720703125;85.64411889611802
61740;BME280;47645;45.288;12.038;2022-09-30T13:41:22;1010.160620155069;;;19.412890625;88.29858409164777
61740;BME280;47645;45.288;12.038;2022-09-30T13:51:24;1010.3136230333544;;;19.2140625;85.97750352028423
61740;BME280;47645;45.288;12.038;2022-09-30T14:01:44;1010.2923667633536;;;19.2396484375;90.90812652426638
61740;BME280;47645;45.288;12.038;2022-09-30T14:11:38;1010.2832023033501;;;19.188671875;91.66537701884158
61740;BME280;47645;45.288;12.038;2022-09-30T14:21:33;1009.7740013425398;;;19.0203125;91.49231061629678
61740;BME280;47645;45.288;12.038;2022-09-30T14:31:27;1009.783605739725;;;18.3578125;91.86460063773254
61740;BME280;47645;45.288;12.038;2022-09-30T14:41:29;1010.1940622431397;;;18.6890625;82.33905856164827
61740;BME280;47645;45.288;12.038;2022-09-30T14:51:34;1010.2785148194358;;;18.4240234375;89.28845266979276
61740;BME280;47645;45.288;12.038;2022-09-30T15:01:32;1010.2784249051028;;;18.8369140625;81.138285530714
61740;BME280;47645;45.288;12.038;2022-09-30T15:11:32;1010.414862130229;;;18.765625;78.9946981553518
61740;BME280;47645;45.288;12.038;2022-09-30T15:21:32;1010.3776281020095;;;18.7349609375;80.24188819864716
61740;BME280;47645;45.288;12.038;2022-09-30T15:31:33;1010.3490017966272;;;18.6126953125;84.01315143330665
61740;BME280;47645;45.288;12.038;2022-09-30T15:41:38;1010.4346744051859;;;18.469921875;82.16501220153567
61740;BME280;47645;45.288;12.038;2022-09-30T15:51:37;1010.4183056934215;;;18.3578125;81.3352095955829
61740;BME280;47645;45.288;12.038;2022-09-30T16:01:37;1010.5581981939598;;;18.1998046875;83.13142170141174
61740;BME280;47645;45.288;12.038;2022-09-30T16:11:40;1010.6489806596021;;;18.2353515625;79.66573655550619
61740;BME280;47645;45.288;12.038;2022-09-30T16:21:44;1010.5949227958383;;;18.062109375;92.16215121076513
61740;BME280;47645;45.288;12.038;2022-09-30T16:31:39;1010.6434514662169;;;17.751171875;93.75013400448904
61740;BME280;47645;45.288;12.038;2022-09-30T16:41:40;1010.7497493743632;;;17.715625;94.18256489608532
61740;BME280;47645;45.288;12.038;2022-09-30T16:51:42;1011.0290143223474;;;17.2669921875;94.05919075579081
61740;BME280;47645;45.288;12.038;2022-09-30T17:01:42;1011.1622906899834;;;17.2568359375;97.09287526269982
61740;BME280;47645;45.288;12.038;2022-09-30T17:11:43;1011.1084182064766;;;17.3078125;100
61740;BME280;47645;45.288;12.038;2022-09-30T17:21:43;1010.9095344299354;;;16.8490234375;100
61740;BME280;47645;45.288;12.038;2022-09-30T17:31:45;1011.1405868102004;;;16.594140625;100
61740;BME280;47645;45.288;12.038;2022-09-30T17:51:46;1011.3988465651223;;;16.359765625;100
61740;BME280;47645;45.288;12.038;2022-09-30T18:01:48;1011.6180055924016;;;16.4158203125;100
61740;BME280;47645;45.288;12.038;2022-09-30T18:11:49;1011.8082991864162;;;16.242578125;100
61740;BME280;47645;45.288;12.038;2022-09-30T18:21:50;1011.7759919245359;;;16.390234375;100
61740;BME280;47645;45.288;12.038;2022-09-30T18:31:51;1011.737391248003;;;15.9671875;100
61740;BME280;47645;45.288;12.038;2022-09-30T18:41:51;1011.7833695337093;;;15.814453125;100
61740;BME280;47645;45.288;12.038;2022-09-30T18:51:52;1011.6702665606662;;;15.951953125;100
61740;BME280;47645;45.288;12.038;2022-09-30T19:01:55;1011.6790561427874;;;15.9927734375;100
61740;BME280;47645;45.288;12.038;2022-09-30T19:11:56;1011.5644751368874;;;16.17109375;100
61740;BME280;47645;45.288;12.038;2022-09-30T19:21:59;1011.7103760542954;;;16.2375;100
61740;BME280;47645;45.288;12.038;2022-09-30T19:31:57;1011.6758610622404;;;16.278125;100
61740;BME280;47645;45.288;12.038;2022-09-30T19:41:57;1011.7447072616559;;;16.05390625;100
61740;BME280;47645;45.288;12.038;2022-09-30T19:51:58;1011.8207768304846;;;16.1099609375;100
61740;BME280;47645;45.288;12.038;2022-09-30T20:02:00;1011.9022518313534;;;15.951953125;100
61740;BME280;47645;45.288;12.038;2022-09-30T20:12:00;1011.8621911195471;;;15.951953125;100
61740;BME280;47645;45.288;12.038;2022-09-30T20:22:00;1011.9422705045856;;;16.05390625;100
61740;BME280;47645;45.288;12.038;2022-09-30T20:32:01;1012.0468868696897;;;15.9009765625;100
61740;BME280;47645;45.288;12.038;2022-09-30T20:42:02;1012.0875672114023;;;15.865234375;100
61740;BME280;47645;45.288;12.038;2022-09-30T20:52:05;1012.123603816874;;;15.83984375;100
61740;BME280;47645;45.288;12.038;2022-09-30T21:02:08;1012.1859679150219;;;15.931640625;100
61740;BME280;47645;45.288;12.038;2022-09-30T21:12:05;1012.3146476832937;;;16.166015625;100
61740;BME280;47645;45.288;12.038;2022-09-30T21:22:06;1012.390677010023;;;16.3392578125;100
61740;BME280;47645;45.288;12.038;2022-09-30T21:32:07;1012.4202625029594;;;16.0896484375;100
61740;BME280;47645;45.288;12.038;2022-09-30T21:42:07;1012.3890095890972;;;16.1966796875;97.38431601203868
61740;BME280;47645;45.288;12.038;2022-09-30T21:52:10;1012.5191823985805;;;16.4208984375;100
61740;BME280;47645;45.288;12.038;2022-09-30T22:02:09;1012.565069058083;;;16.369921875;100
61740;BME280;47645;45.288;12.038;2022-09-30T22:12:10;1012.655402573764;;;16.476953125;100
61740;BME280;47645;45.288;12.038;2022-09-30T22:22:11;1012.5370894112276;;;16.2220703125;100
61740;BME280;47645;45.288;12.038;2022-09-30T22:32:12;1012.5332454560512;;;16.176171875;100
61740;BME280;47645;45.288;12.038;2022-09-30T22:42:13;1012.5237359952289;;;16.349609375;100
61740;BME280;47645;45.288;12.038;2022-09-30T22:52:13;1012.5733011688822;;;16.273046875;98.915031432319
61740;BME280;47645;45.288;12.038;2022-09-30T23:02:14;1012.6000538553972;;;16.0896484375;100
61740;BME280;47645;45.288;12.038;2022-09-30T23:12:15;1012.6844925941783;;;16.0794921875;100
61740;BME280;47645;45.288;12.038;2022-09-30T23:22:18;1012.7624241553681;;;15.8705078125;100
61740;BME280;47645;45.288;12.038;2022-09-30T23:32:17;1012.8914789974892;;;15.834765625;100
61740;BME280;47645;45.288;12.038;2022-09-30T23:42:18;1012.9826801577533;;;15.8705078125;100
61740;BME280;47645;45.288;12.038;2022-09-30T23:52:18;1013.067784297673;;;15.814453125;100
